sensor_id;sensor_type;location;lat;lon;timestamp;P1;durP1;ratioP1;P2;durP2;ratioP2
5774;SDS011;2913;51.120;6.772;2022-12-05T00:00:51;47.88;;;17.77;;
5774;SDS011;2913;51.120;6.772;2022-12-05T00:03:20;47.85;;;16.65;;
5774;SDS011;2913;51.120;6.772;2022-12-05T00:05:48;42.72;;;15.25;;
5774;SDS011;2913;51.120;6.772;2022-12-05T00:08:14;45.90;;;16.58;;
5774;SDS011;2913;51.120;6.772;2022-12-05T00:10:42;44.03;;;16.23;;
5774;SDS011;2913;51.120;6.772;2022-12-05T00:13:08;43.55;;;16.70;;
5774;SDS011;2913;51.120;6.772;2022-12-05T00:15:35;42.55;;;17.52;;
5774;SDS011;2913;51.120;6.772;2022-12-05T00:18:02;50.65;;;16.10;;
5774;SDS011;2913;51.120;6.772;2022-12-05T00:20:28;48.03;;;17.73;;
5774;SDS011;2913;51.120;6.772;2022-12-05T00:22:53;46.28;;;18.65;;
5774;SDS011;2913;51.120;6.772;2022-12-05T00:25:21;46.80;;;16.60;;
5774;SDS011;2913;51.120;6.772;2022-12-05T00:27:47;47.53;;;15.70;;
5774;SDS011;2913;51.120;6.772;2022-12-05T00:30:15;50.28;;;16.00;;
5774;SDS011;2913;51.120;6.772;2022-12-05T00:32:43;51.13;;;17.67;;
5774;SDS011;2913;51.120;6.772;2022-12-05T00:35:09;48.05;;;16.50;;
5774;SDS011;2913;51.120;6.772;2022-12-05T00:37:36;52.20;;;18.30;;
5774;SDS011;2913;51.120;6.772;2022-12-05T00:40:05;49.05;;;17.27;;
5774;SDS011;2913;51.120;6.772;2022-12-05T00:42:33;47.85;;;17.30;;
5774;SDS011;2913;51.120;6.772;2022-12-05T00:44:59;45.28;;;17.05;;
5774;SDS011;2913;51.120;6.772;2022-12-05T00:47:26;44.00;;;17.60;;
5774;SDS011;2913;51.120;6.772;2022-12-05T00:49:55;48.20;;;16.48;;
5774;SDS011;2913;51.120;6.772;2022-12-05T00:52:20;50.20;;;18.42;;
5774;SDS011;2913;51.120;6.772;2022-12-05T00:54:46;44.53;;;15.10;;
5774;SDS011;2913;51.120;6.772;2022-12-05T00:57:11;51.53;;;18.70;;
5774;SDS011;2913;51.120;6.772;2022-12-05T00:59:39;48.50;;;17.80;;
5774;SDS011;2913;51.120;6.772;2022-12-05T01:02:05;55.35;;;19.08;;
5774;SDS011;2913;51.120;6.772;2022-12-05T01:04:33;54.50;;;19.45;;
5774;SDS011;2913;51.120;6.772;2022-12-05T01:07:05;55.10;;;16.80;;
5774;SDS011;2913;51.120;6.772;2022-12-05T01:09:31;44.30;;;16.38;;
5774;SDS011;2913;51.120;6.772;2022-12-05T01:11:57;51.70;;;17.10;;
5774;SDS011;2913;51.120;6.772;2022-12-05T01:14:23;54.50;;;18.88;;
5774;SDS011;2913;51.120;6.772;2022-12-05T01:16:50;49.40;;;17.27;;
5774;SDS011;2913;51.120;6.772;2022-12-05T01:19:22;41.30;;;14.93;;
5774;SDS011;2913;51.120;6.772;2022-12-05T01:21:53;50.97;;;18.27;;
5774;SDS011;2913;51.120;6.772;2022-12-05T01:24:19;50.65;;;16.90;;
5774;SDS011;2913;51.120;6.772;2022-12-05T01:26:52;51.55;;;18.15;;
5774;SDS011;2913;51.120;6.772;2022-12-05T01:29:19;47.50;;;16.02;;
5774;SDS011;2913;51.120;6.772;2022-12-05T01:31:46;55.60;;;18.88;;
5774;SDS011;2913;51.120;6.772;2022-12-05T01:34:13;54.35;;;19.25;;
5774;SDS011;2913;51.120;6.772;2022-12-05T01:36:40;49.38;;;16.27;;
5774;SDS011;2913;51.120;6.772;2022-12-05T01:39:06;45.67;;;17.23;;
5774;SDS011;2913;51.120;6.772;2022-12-05T01:41:37;52.45;;;19.48;;
5774;SDS011;2913;51.120;6.772;2022-12-05T01:46:36;44.55;;;17.30;;
5774;SDS011;2913;51.120;6.772;2022-12-05T01:49:16;43.22;;;16.92;;
5774;SDS011;2913;51.120;6.772;2022-12-05T01:51:47;52.63;;;19.08;;
5774;SDS011;2913;51.120;6.772;2022-12-05T01:54:28;49.17;;;17.75;;
5774;SDS011;2913;51.120;6.772;2022-12-05T01:56:55;48.45;;;17.20;;
5774;SDS011;2913;51.120;6.772;2022-12-05T01:59:25;42.15;;;17.40;;
5774;SDS011;2913;51.120;6.772;2022-12-05T02:01:57;53.78;;;19.40;;
5774;SDS011;2913;51.120;6.772;2022-12-05T02:04:23;52.28;;;17.77;;
5774;SDS011;2913;51.120;6.772;2022-12-05T02:06:52;53.67;;;17.33;;
5774;SDS011;2913;51.120;6.772;2022-12-05T02:09:18;46.50;;;16.90;;
5774;SDS011;2913;51.120;6.772;2022-12-05T02:11:48;45.03;;;17.50;;
5774;SDS011;2913;51.120;6.772;2022-12-05T02:16:56;43.30;;;17.20;;
5774;SDS011;2913;51.120;6.772;2022-12-05T02:30:37;45.60;;;14.98;;
5774;SDS011;2913;51.120;6.772;2022-12-05T02:38:27;46.72;;;17.17;;
5774;SDS011;2913;51.120;6.772;2022-12-05T02:41:10;48.03;;;16.85;;
5774;SDS011;2913;51.120;6.772;2022-12-05T02:44:02;46.15;;;17.50;;
5774;SDS011;2913;51.120;6.772;2022-12-05T02:46:37;50.08;;;18.60;;
5774;SDS011;2913;51.120;6.772;2022-12-05T02:49:06;49.40;;;17.95;;
5774;SDS011;2913;51.120;6.772;2022-12-05T02:51:38;43.05;;;16.05;;
5774;SDS011;2913;51.120;6.772;2022-12-05T02:54:11;47.58;;;16.88;;
5774;SDS011;2913;51.120;6.772;2022-12-05T02:56:44;47.40;;;17.27;;
5774;SDS011;2913;51.120;6.772;2022-12-05T02:59:11;42.17;;;15.70;;
5774;SDS011;2913;51.120;6.772;2022-12-05T03:01:36;46.65;;;17.20;;
5774;SDS011;2913;51.120;6.772;2022-12-05T03:04:03;45.13;;;17.20;;
5774;SDS011;2913;51.120;6.772;2022-12-05T03:06:34;42.13;;;17.45;;
5774;SDS011;2913;51.120;6.772;2022-12-05T03:09:07;51.05;;;16.48;;
5774;SDS011;2913;51.120;6.772;2022-12-05T03:11:37;49.07;;;17.20;;
5774;SDS011;2913;51.120;6.772;2022-12-05T03:14:30;48.30;;;16.67;;
5774;SDS011;2913;51.120;6.772;2022-12-05T03:17:05;52.88;;;17.20;;
5774;SDS011;2913;51.120;6.772;2022-12-05T03:19:47;39.25;;;15.40;;
5774;SDS011;2913;51.120;6.772;2022-12-05T03:22:18;49.17;;;16.40;;
5774;SDS011;2913;51.120;6.772;2022-12-05T03:24:52;39.53;;;17.63;;
5774;SDS011;2913;51.120;6.772;2022-12-05T03:30:04;45.92;;;16.48;;
5774;SDS011;2913;51.120;6.772;2022-12-05T03:38:19;47.70;;;17.77;;
5774;SDS011;2913;51.120;6.772;2022-12-05T03:41:18;44.28;;;17.38;;
5774;SDS011;2913;51.120;6.772;2022-12-05T03:43:55;53.65;;;19.38;;
5774;SDS011;2913;51.120;6.772;2022-12-05T03:49:03;48.08;;;18.30;;
5774;SDS011;2913;51.120;6.772;2022-12-05T03:52:05;47.22;;;17.95;;
5774;SDS011;2913;51.120;6.772;2022-12-05T03:54:34;49.28;;;18.33;;
5774;SDS011;2913;51.120;6.772;2022-12-05T03:59:40;47.97;;;17.08;;
5774;SDS011;2913;51.120;6.772;2022-12-05T04:02:12;49.50;;;16.58;;
5774;SDS011;2913;51.120;6.772;2022-12-05T04:04:50;43.33;;;16.08;;
5774;SDS011;2913;51.120;6.772;2022-12-05T04:07:30;39.30;;;17.17;;
5774;SDS011;2913;51.120;6.772;2022-12-05T04:10:05;45.17;;;16.60;;
5774;SDS011;2913;51.120;6.772;2022-12-05T04:12:36;40.05;;;16.65;;
5774;SDS011;2913;51.120;6.772;2022-12-05T04:15:05;51.03;;;17.23;;
5774;SDS011;2913;51.120;6.772;2022-12-05T04:20:31;45.85;;;19.00;;
5774;SDS011;2913;51.120;6.772;2022-12-05T04:23:20;50.45;;;17.05;;
5774;SDS011;2913;51.120;6.772;2022-12-05T04:25:51;44.65;;;18.05;;
5774;SDS011;2913;51.120;6.772;2022-12-05T04:36:21;41.67;;;17.33;;
5774;SDS011;2913;51.120;6.772;2022-12-05T04:38:49;43.67;;;16.23;;
5774;SDS011;2913;51.120;6.772;2022-12-05T04:41:23;45.45;;;17.30;;
5774;SDS011;2913;51.120;6.772;2022-12-05T04:43:52;55.42;;;17.40;;
5774;SDS011;2913;51.120;6.772;2022-12-05T04:46:21;43.83;;;17.70;;
5774;SDS011;2913;51.120;6.772;2022-12-05T04:48:49;46.20;;;16.55;;
5774;SDS011;2913;51.120;6.772;2022-12-05T04:51:19;42.50;;;17.45;;
5774;SDS011;2913;51.120;6.772;2022-12-05T04:53:52;47.33;;;18.05;;
5774;SDS011;2913;51.120;6.772;2022-12-05T04:56:21;38.50;;;16.27;;
5774;SDS011;2913;51.120;6.772;2022-12-05T04:58:51;40.90;;;16.55;;
5774;SDS011;2913;51.120;6.772;2022-12-05T05:01:21;47.45;;;17.67;;
5774;SDS011;2913;51.120;6.772;2022-12-05T05:03:54;46.45;;;16.00;;
5774;SDS011;2913;51.120;6.772;2022-12-05T05:06:26;38.22;;;17.30;;
5774;SDS011;2913;51.120;6.772;2022-12-05T05:08:53;43.65;;;16.52;;
5774;SDS011;2913;51.120;6.772;2022-12-05T05:11:23;41.00;;;16.40;;
5774;SDS011;2913;51.120;6.772;2022-12-05T05:13:56;47.97;;;17.60;;
5774;SDS011;2913;51.120;6.772;2022-12-05T05:16:32;43.05;;;17.67;;
5774;SDS011;2913;51.120;6.772;2022-12-05T05:19:03;41.58;;;15.90;;
5774;SDS011;2913;51.120;6.772;2022-12-05T05:21:36;44.97;;;17.88;;
5774;SDS011;2913;51.120;6.772;2022-12-05T05:24:06;43.78;;;17.00;;
5774;SDS011;2913;51.120;6.772;2022-12-05T05:26:36;44.00;;;17.38;;
5774;SDS011;2913;51.120;6.772;2022-12-05T05:29:03;41.72;;;17.13;;
5774;SDS011;2913;51.120;6.772;2022-12-05T05:31:30;37.15;;;15.60;;
5774;SDS011;2913;51.120;6.772;2022-12-05T05:33:56;42.70;;;16.88;;
5774;SDS011;2913;51.120;6.772;2022-12-05T05:36:25;38.78;;;16.08;;
5774;SDS011;2913;51.120;6.772;2022-12-05T05:38:52;37.28;;;16.05;;
5774;SDS011;2913;51.120;6.772;2022-12-05T05:41:26;42.53;;;16.13;;
5774;SDS011;2913;51.120;6.772;2022-12-05T05:43:54;41.75;;;18.00;;
5774;SDS011;2913;51.120;6.772;2022-12-05T05:46:21;41.85;;;15.73;;
5774;SDS011;2913;51.120;6.772;2022-12-05T05:48:48;48.47;;;17.27;;
5774;SDS011;2913;51.120;6.772;2022-12-05T05:51:15;42.97;;;16.70;;
5774;SDS011;2913;51.120;6.772;2022-12-05T05:53:41;42.25;;;16.35;;
5774;SDS011;2913;51.120;6.772;2022-12-05T05:56:13;34.83;;;15.48;;
5774;SDS011;2913;51.120;6.772;2022-12-05T05:58:43;42.47;;;16.83;;
5774;SDS011;2913;51.120;6.772;2022-12-05T06:01:18;36.22;;;16.65;;
5774;SDS011;2913;51.120;6.772;2022-12-05T06:03:46;48.28;;;18.30;;
5774;SDS011;2913;51.120;6.772;2022-12-05T06:06:13;44.63;;;18.02;;
5774;SDS011;2913;51.120;6.772;2022-12-05T06:08:42;46.13;;;18.40;;
5774;SDS011;2913;51.120;6.772;2022-12-05T06:11:09;39.47;;;17.25;;
5774;SDS011;2913;51.120;6.772;2022-12-05T06:13:39;38.50;;;17.63;;
5774;SDS011;2913;51.120;6.772;2022-12-05T06:16:08;43.22;;;16.23;;
5774;SDS011;2913;51.120;6.772;2022-12-05T06:18:35;47.22;;;16.73;;
5774;SDS011;2913;51.120;6.772;2022-12-05T06:21:01;40.78;;;16.50;;
5774;SDS011;2913;51.120;6.772;2022-12-05T06:23:28;42.00;;;16.85;;
5774;SDS011;2913;51.120;6.772;2022-12-05T06:25:54;48.28;;;19.48;;
5774;SDS011;2913;51.120;6.772;2022-12-05T06:28:20;47.28;;;17.33;;
5774;SDS011;2913;51.120;6.772;2022-12-05T06:30:47;50.92;;;18.02;;
5774;SDS011;2913;51.120;6.772;2022-12-05T06:33:14;42.63;;;17.75;;
5774;SDS011;2913;51.120;6.772;2022-12-05T06:35:42;36.42;;;15.98;;
5774;SDS011;2913;51.120;6.772;2022-12-05T06:38:08;41.60;;;16.42;;
5774;SDS011;2913;51.120;6.772;2022-12-05T06:40:38;42.65;;;17.25;;
5774;SDS011;2913;51.120;6.772;2022-12-05T06:43:05;40.40;;;17.10;;
5774;SDS011;2913;51.120;6.772;2022-12-05T06:45:31;40.97;;;15.95;;
5774;SDS011;2913;51.120;6.772;2022-12-05T06:47:58;43.40;;;17.63;;
5774;SDS011;2913;51.120;6.772;2022-12-05T06:50:26;42.38;;;17.60;;
5774;SDS011;2913;51.120;6.772;2022-12-05T06:52:52;46.13;;;18.13;;
5774;SDS011;2913;51.120;6.772;2022-12-05T06:55:18;44.22;;;17.35;;
5774;SDS011;2913;51.120;6.772;2022-12-05T06:57:43;49.90;;;18.17;;
5774;SDS011;2913;51.120;6.772;2022-12-05T07:00:09;43.70;;;17.23;;
5774;SDS011;2913;51.120;6.772;2022-12-05T07:02:54;43.95;;;17.58;;
5774;SDS011;2913;51.120;6.772;2022-12-05T07:05:22;44.47;;;17.98;;
5774;SDS011;2913;51.120;6.772;2022-12-05T07:07:47;43.38;;;17.77;;
5774;SDS011;2913;51.120;6.772;2022-12-05T07:10:13;53.88;;;17.02;;
5774;SDS011;2913;51.120;6.772;2022-12-05T07:12:39;48.63;;;16.85;;
5774;SDS011;2913;51.120;6.772;2022-12-05T07:15:05;41.20;;;17.63;;
5774;SDS011;2913;51.120;6.772;2022-12-05T07:17:36;42.60;;;17.67;;
5774;SDS011;2913;51.120;6.772;2022-12-05T07:20:03;41.33;;;16.58;;
5774;SDS011;2913;51.120;6.772;2022-12-05T07:22:30;40.40;;;16.85;;
5774;SDS011;2913;51.120;6.772;2022-12-05T07:24:58;40.80;;;16.30;;
5774;SDS011;2913;51.120;6.772;2022-12-05T07:27:23;41.13;;;16.30;;
5774;SDS011;2913;51.120;6.772;2022-12-05T07:29:52;37.60;;;16.30;;
5774;SDS011;2913;51.120;6.772;2022-12-05T07:32:20;40.67;;;17.02;;
5774;SDS011;2913;51.120;6.772;2022-12-05T07:34:45;41.42;;;17.23;;
5774;SDS011;2913;51.120;6.772;2022-12-05T07:37:13;39.55;;;16.20;;
5774;SDS011;2913;51.120;6.772;2022-12-05T07:39:41;37.53;;;16.83;;
5774;SDS011;2913;51.120;6.772;2022-12-05T07:42:09;39.10;;;16.25;;
5774;SDS011;2913;51.120;6.772;2022-12-05T07:44:37;40.80;;;16.92;;
5774;SDS011;2913;51.120;6.772;2022-12-05T07:47:05;43.03;;;16.67;;
5774;SDS011;2913;51.120;6.772;2022-12-05T07:49:31;41.67;;;16.30;;
5774;SDS011;2913;51.120;6.772;2022-12-05T07:51:59;40.08;;;17.00;;
5774;SDS011;2913;51.120;6.772;2022-12-05T07:54:24;37.92;;;16.42;;
5774;SDS011;2913;51.120;6.772;2022-12-05T07:56:50;37.83;;;16.30;;
5774;SDS011;2913;51.120;6.772;2022-12-05T07:59:15;43.90;;;16.45;;
5774;SDS011;2913;51.120;6.772;2022-12-05T08:01:41;42.17;;;16.67;;
5774;SDS011;2913;51.120;6.772;2022-12-05T08:04:09;42.92;;;17.05;;
5774;SDS011;2913;51.120;6.772;2022-12-05T08:06:37;44.78;;;16.77;;
5774;SDS011;2913;51.120;6.772;2022-12-05T08:09:05;34.72;;;15.65;;
5774;SDS011;2913;51.120;6.772;2022-12-05T08:11:33;44.08;;;17.42;;
5774;SDS011;2913;51.120;6.772;2022-12-05T08:14:00;42.63;;;17.08;;
5774;SDS011;2913;51.120;6.772;2022-12-05T08:16:27;39.65;;;15.98;;
5774;SDS011;2913;51.120;6.772;2022-12-05T08:18:54;46.30;;;16.45;;
5774;SDS011;2913;51.120;6.772;2022-12-05T08:21:20;41.92;;;16.70;;
5774;SDS011;2913;51.120;6.772;2022-12-05T08:23:49;44.42;;;16.88;;
5774;SDS011;2913;51.120;6.772;2022-12-05T08:26:17;42.58;;;17.63;;
5774;SDS011;2913;51.120;6.772;2022-12-05T08:28:56;41.20;;;16.85;;
5774;SDS011;2913;51.120;6.772;2022-12-05T08:31:32;41.58;;;17.65;;
5774;SDS011;2913;51.120;6.772;2022-12-05T08:34:03;38.88;;;16.73;;
5774;SDS011;2913;51.120;6.772;2022-12-05T08:36:31;40.67;;;16.52;;
5774;SDS011;2913;51.120;6.772;2022-12-05T08:39:00;48.95;;;17.55;;
5774;SDS011;2913;51.120;6.772;2022-12-05T08:41:28;48.38;;;17.00;;
5774;SDS011;2913;51.120;6.772;2022-12-05T08:43:55;56.72;;;17.52;;
5774;SDS011;2913;51.120;6.772;2022-12-05T08:46:23;51.72;;;17.55;;
5774;SDS011;2913;51.120;6.772;2022-12-05T08:48:50;37.08;;;16.27;;
5774;SDS011;2913;51.120;6.772;2022-12-05T08:51:16;36.60;;;15.98;;
5774;SDS011;2913;51.120;6.772;2022-12-05T08:53:41;44.22;;;17.38;;
5774;SDS011;2913;51.120;6.772;2022-12-05T08:56:12;43.60;;;17.70;;
5774;SDS011;2913;51.120;6.772;2022-12-05T08:58:38;39.08;;;15.90;;
5774;SDS011;2913;51.120;6.772;2022-12-05T09:01:07;41.20;;;16.67;;
5774;SDS011;2913;51.120;6.772;2022-12-05T09:03:35;40.05;;;17.52;;
5774;SDS011;2913;51.120;6.772;2022-12-05T09:08:35;43.97;;;16.75;;
5774;SDS011;2913;51.120;6.772;2022-12-05T09:11:09;38.78;;;17.38;;
5774;SDS011;2913;51.120;6.772;2022-12-05T09:13:40;33.80;;;16.17;;
5774;SDS011;2913;51.120;6.772;2022-12-05T09:16:13;45.83;;;17.88;;
5774;SDS011;2913;51.120;6.772;2022-12-05T09:18:42;42.78;;;17.98;;
5774;SDS011;2913;51.120;6.772;2022-12-05T09:21:10;43.95;;;18.42;;
5774;SDS011;2913;51.120;6.772;2022-12-05T09:23:37;43.50;;;17.77;;
5774;SDS011;2913;51.120;6.772;2022-12-05T09:26:03;39.63;;;16.98;;
5774;SDS011;2913;51.120;6.772;2022-12-05T09:28:32;35.63;;;17.02;;
5774;SDS011;2913;51.120;6.772;2022-12-05T09:30:59;39.53;;;17.48;;
5774;SDS011;2913;51.120;6.772;2022-12-05T09:33:27;41.08;;;17.05;;
5774;SDS011;2913;51.120;6.772;2022-12-05T09:36:00;40.22;;;17.98;;
5774;SDS011;2913;51.120;6.772;2022-12-05T09:38:35;46.25;;;17.60;;
5774;SDS011;2913;51.120;6.772;2022-12-05T09:46:05;43.42;;;17.98;;
5774;SDS011;2913;51.120;6.772;2022-12-05T09:48:57;40.85;;;16.98;;
5774;SDS011;2913;51.120;6.772;2022-12-05T09:51:23;41.58;;;16.73;;
5774;SDS011;2913;51.120;6.772;2022-12-05T09:53:50;38.47;;;16.52;;
5774;SDS011;2913;51.120;6.772;2022-12-05T09:56:28;40.30;;;16.13;;
5774;SDS011;2913;51.120;6.772;2022-12-05T09:58:57;36.28;;;16.23;;
5774;SDS011;2913;51.120;6.772;2022-12-05T10:17:52;45.67;;;17.58;;
5774;SDS011;2913;51.120;6.772;2022-12-05T10:20:24;38.78;;;17.90;;
5774;SDS011;2913;51.120;6.772;2022-12-05T10:22:58;39.20;;;16.92;;
5774;SDS011;2913;51.120;6.772;2022-12-05T10:25:26;40.45;;;17.13;;
5774;SDS011;2913;51.120;6.772;2022-12-05T10:27:56;34.35;;;15.13;;
5774;SDS011;2913;51.120;6.772;2022-12-05T10:30:26;41.33;;;18.63;;
5774;SDS011;2913;51.120;6.772;2022-12-05T10:33:04;40.83;;;18.40;;
5774;SDS011;2913;51.120;6.772;2022-12-05T10:35:41;39.80;;;17.10;;
5774;SDS011;2913;51.120;6.772;2022-12-05T10:41:04;33.13;;;15.45;;
5774;SDS011;2913;51.120;6.772;2022-12-05T10:43:32;41.58;;;19.92;;
5774;SDS011;2913;51.120;6.772;2022-12-05T10:45:58;37.95;;;17.52;;
5774;SDS011;2913;51.120;6.772;2022-12-05T10:48:26;42.13;;;19.17;;
5774;SDS011;2913;51.120;6.772;2022-12-05T10:50:54;39.38;;;17.08;;
5774;SDS011;2913;51.120;6.772;2022-12-05T10:53:27;48.35;;;19.45;;
5774;SDS011;2913;51.120;6.772;2022-12-05T10:59:19;40.53;;;19.35;;
5774;SDS011;2913;51.120;6.772;2022-12-05T11:01:47;37.17;;;16.80;;
5774;SDS011;2913;51.120;6.772;2022-12-05T11:07:03;45.75;;;21.23;;
5774;SDS011;2913;51.120;6.772;2022-12-05T11:12:34;39.90;;;19.42;;
5774;SDS011;2913;51.120;6.772;2022-12-05T11:17:30;32.03;;;14.93;;
5774;SDS011;2913;51.120;6.772;2022-12-05T11:20:31;31.60;;;14.32;;
5774;SDS011;2913;51.120;6.772;2022-12-05T11:22:49;30.58;;;14.68;;
5774;SDS011;2913;51.120;6.772;2022-12-05T11:27:55;33.65;;;15.32;;
5774;SDS011;2913;51.120;6.772;2022-12-05T11:30:23;36.50;;;15.80;;
5774;SDS011;2913;51.120;6.772;2022-12-05T11:33:09;35.83;;;15.43;;
5774;SDS011;2913;51.120;6.772;2022-12-05T11:35:41;37.75;;;16.20;;
5774;SDS011;2913;51.120;6.772;2022-12-05T11:38:08;35.95;;;16.25;;
5774;SDS011;2913;51.120;6.772;2022-12-05T11:40:57;35.92;;;16.92;;
5774;SDS011;2913;51.120;6.772;2022-12-05T11:46:19;34.45;;;15.82;;
5774;SDS011;2913;51.120;6.772;2022-12-05T11:51:47;33.38;;;15.45;;
5774;SDS011;2913;51.120;6.772;2022-12-05T12:05:55;33.50;;;15.18;;
5774;SDS011;2913;51.120;6.772;2022-12-05T12:11:25;37.60;;;16.90;;
5774;SDS011;2913;51.120;6.772;2022-12-05T12:40:28;35.33;;;16.38;;
5774;SDS011;2913;51.120;6.772;2022-12-05T12:45:49;34.20;;;15.63;;
5774;SDS011;2913;51.120;6.772;2022-12-05T12:50:55;34.08;;;15.98;;
5774;SDS011;2913;51.120;6.772;2022-12-05T13:01:44;32.53;;;15.77;;
5774;SDS011;2913;51.120;6.772;2022-12-05T13:04:17;35.92;;;16.35;;
5774;SDS011;2913;51.120;6.772;2022-12-05T13:07:04;31.55;;;15.35;;
5774;SDS011;2913;51.120;6.772;2022-12-05T13:12:13;27.88;;;14.43;;
5774;SDS011;2913;51.120;6.772;2022-12-05T13:14:45;29.08;;;14.95;;
5774;SDS011;2913;51.120;6.772;2022-12-05T13:17:16;28.42;;;13.77;;
5774;SDS011;2913;51.120;6.772;2022-12-05T13:19:53;25.50;;;12.77;;
5774;SDS011;2913;51.120;6.772;2022-12-05T13:22:22;27.65;;;12.90;;
5774;SDS011;2913;51.120;6.772;2022-12-05T13:24:50;23.75;;;12.90;;
5774;SDS011;2913;51.120;6.772;2022-12-05T13:27:20;24.38;;;11.65;;
5774;SDS011;2913;51.120;6.772;2022-12-05T13:29:57;23.40;;;11.50;;
5774;SDS011;2913;51.120;6.772;2022-12-05T13:32:32;25.23;;;10.88;;
5774;SDS011;2913;51.120;6.772;2022-12-05T13:35:08;17.65;;;10.13;;
5774;SDS011;2913;51.120;6.772;2022-12-05T13:38:11;21.85;;;11.13;;
5774;SDS011;2913;51.120;6.772;2022-12-05T13:41:07;21.38;;;11.52;;
5774;SDS011;2913;51.120;6.772;2022-12-05T13:43:52;21.27;;;12.25;;
5774;SDS011;2913;51.120;6.772;2022-12-05T13:46:28;21.98;;;11.55;;
5774;SDS011;2913;51.120;6.772;2022-12-05T13:49:12;20.52;;;11.18;;
5774;SDS011;2913;51.120;6.772;2022-12-05T13:51:42;23.92;;;10.90;;
5774;SDS011;2913;51.120;6.772;2022-12-05T14:05:53;19.63;;;9.95;;
5774;SDS011;2913;51.120;6.772;2022-12-05T14:32:23;17.02;;;10.18;;
5774;SDS011;2913;51.120;6.772;2022-12-05T14:35:03;18.10;;;10.60;;
5774;SDS011;2913;51.120;6.772;2022-12-05T14:37:42;18.45;;;10.52;;
5774;SDS011;2913;51.120;6.772;2022-12-05T14:40:29;19.55;;;10.70;;
5774;SDS011;2913;51.120;6.772;2022-12-05T14:45:44;16.15;;;9.90;;
5774;SDS011;2913;51.120;6.772;2022-12-05T14:54:19;19.80;;;10.90;;
5774;SDS011;2913;51.120;6.772;2022-12-05T14:56:50;22.08;;;11.25;;
5774;SDS011;2913;51.120;6.772;2022-12-05T14:59:36;19.33;;;11.30;;
5774;SDS011;2913;51.120;6.772;2022-12-05T15:02:21;31.67;;;15.93;;
5774;SDS011;2913;51.120;6.772;2022-12-05T15:04:54;23.73;;;12.55;;
5774;SDS011;2913;51.120;6.772;2022-12-05T15:07:26;23.40;;;12.30;;
5774;SDS011;2913;51.120;6.772;2022-12-05T15:23:58;23.90;;;11.90;;
5774;SDS011;2913;51.120;6.772;2022-12-05T15:26:34;23.10;;;12.63;;
5774;SDS011;2913;51.120;6.772;2022-12-05T15:29:08;22.25;;;11.85;;
5774;SDS011;2913;51.120;6.772;2022-12-05T15:34:28;25.83;;;12.18;;
5774;SDS011;2913;51.120;6.772;2022-12-05T15:39:48;20.58;;;11.75;;
5774;SDS011;2913;51.120;6.772;2022-12-05T15:47:48;21.88;;;12.15;;
5774;SDS011;2913;51.120;6.772;2022-12-05T15:55:38;22.88;;;11.93;;
5774;SDS011;2913;51.120;6.772;2022-12-05T15:58:24;19.67;;;10.88;;
5774;SDS011;2913;51.120;6.772;2022-12-05T16:01:00;24.48;;;12.68;;
5774;SDS011;2913;51.120;6.772;2022-12-05T16:03:52;22.98;;;11.82;;
5774;SDS011;2913;51.120;6.772;2022-12-05T16:06:38;21.88;;;11.32;;
5774;SDS011;2913;51.120;6.772;2022-12-05T16:09:15;20.08;;;10.73;;
5774;SDS011;2913;51.120;6.772;2022-12-05T16:11:49;22.90;;;12.15;;
5774;SDS011;2913;51.120;6.772;2022-12-05T16:14:19;20.63;;;11.32;;
5774;SDS011;2913;51.120;6.772;2022-12-05T16:16:49;21.70;;;11.23;;
5774;SDS011;2913;51.120;6.772;2022-12-05T16:19:22;20.67;;;11.60;;
5774;SDS011;2913;51.120;6.772;2022-12-05T16:24:44;21.07;;;11.87;;
5774;SDS011;2913;51.120;6.772;2022-12-05T16:27:25;20.42;;;11.95;;
5774;SDS011;2913;51.120;6.772;2022-12-05T16:32:40;22.42;;;12.02;;
5774;SDS011;2913;51.120;6.772;2022-12-05T16:38:01;23.75;;;12.57;;
5774;SDS011;2913;51.120;6.772;2022-12-05T16:40:27;20.25;;;11.95;;
5774;SDS011;2913;51.120;6.772;2022-12-05T16:43:03;22.90;;;12.55;;
5774;SDS011;2913;51.120;6.772;2022-12-05T16:45:37;32.42;;;17.15;;
5774;SDS011;2913;51.120;6.772;2022-12-05T16:48:26;27.25;;;15.10;;
5774;SDS011;2913;51.120;6.772;2022-12-05T16:53:38;25.00;;;13.75;;
5774;SDS011;2913;51.120;6.772;2022-12-05T16:56:06;28.42;;;13.38;;
5774;SDS011;2913;51.120;6.772;2022-12-05T16:58:37;27.27;;;13.43;;
5774;SDS011;2913;51.120;6.772;2022-12-05T17:01:05;21.30;;;12.65;;
5774;SDS011;2913;51.120;6.772;2022-12-05T17:03:38;27.63;;;14.48;;
5774;SDS011;2913;51.120;6.772;2022-12-05T17:06:04;23.85;;;13.50;;
5774;SDS011;2913;51.120;6.772;2022-12-05T17:08:32;22.80;;;13.07;;
5774;SDS011;2913;51.120;6.772;2022-12-05T17:11:00;22.88;;;12.35;;
5774;SDS011;2913;51.120;6.772;2022-12-05T17:13:27;23.13;;;13.18;;
5774;SDS011;2913;51.120;6.772;2022-12-05T17:15:55;23.83;;;13.63;;
5774;SDS011;2913;51.120;6.772;2022-12-05T17:18:23;29.33;;;16.80;;
5774;SDS011;2913;51.120;6.772;2022-12-05T17:20:53;33.40;;;18.55;;
5774;SDS011;2913;51.120;6.772;2022-12-05T17:23:20;30.15;;;17.88;;
5774;SDS011;2913;51.120;6.772;2022-12-05T17:25:52;34.17;;;20.25;;
5774;SDS011;2913;51.120;6.772;2022-12-05T17:28:19;39.17;;;20.48;;
5774;SDS011;2913;51.120;6.772;2022-12-05T17:30:47;37.28;;;19.42;;
5774;SDS011;2913;51.120;6.772;2022-12-05T17:33:14;43.95;;;19.83;;
5774;SDS011;2913;51.120;6.772;2022-12-05T17:35:43;34.28;;;19.08;;
5774;SDS011;2913;51.120;6.772;2022-12-05T17:38:12;36.42;;;20.63;;
5774;SDS011;2913;51.120;6.772;2022-12-05T17:40:40;33.47;;;20.13;;
5774;SDS011;2913;51.120;6.772;2022-12-05T17:43:09;32.53;;;19.02;;
5774;SDS011;2913;51.120;6.772;2022-12-05T17:45:38;34.05;;;18.85;;
5774;SDS011;2913;51.120;6.772;2022-12-05T17:48:03;36.85;;;20.27;;
5774;SDS011;2913;51.120;6.772;2022-12-05T17:50:29;34.35;;;18.77;;
5774;SDS011;2913;51.120;6.772;2022-12-05T17:52:55;33.25;;;18.00;;
5774;SDS011;2913;51.120;6.772;2022-12-05T17:55:27;42.55;;;19.38;;
5774;SDS011;2913;51.120;6.772;2022-12-05T17:57:54;36.17;;;19.00;;
5774;SDS011;2913;51.120;6.772;2022-12-05T18:00:23;31.88;;;16.42;;
5774;SDS011;2913;51.120;6.772;2022-12-05T18:02:49;32.63;;;17.00;;
5774;SDS011;2913;51.120;6.772;2022-12-05T18:05:15;32.10;;;16.48;;
5774;SDS011;2913;51.120;6.772;2022-12-05T18:07:44;42.67;;;22.75;;
5774;SDS011;2913;51.120;6.772;2022-12-05T18:10:11;38.45;;;20.40;;
5774;SDS011;2913;51.120;6.772;2022-12-05T18:12:39;31.92;;;16.70;;
5774;SDS011;2913;51.120;6.772;2022-12-05T18:15:05;26.48;;;14.82;;
5774;SDS011;2913;51.120;6.772;2022-12-05T18:17:34;31.73;;;14.65;;
5774;SDS011;2913;51.120;6.772;2022-12-05T18:20:00;27.95;;;14.40;;
5774;SDS011;2913;51.120;6.772;2022-12-05T18:22:28;25.05;;;13.90;;
5774;SDS011;2913;51.120;6.772;2022-12-05T18:24:56;30.98;;;15.18;;
5774;SDS011;2913;51.120;6.772;2022-12-05T18:27:22;32.30;;;18.02;;
5774;SDS011;2913;51.120;6.772;2022-12-05T18:29:49;34.60;;;19.45;;
5774;SDS011;2913;51.120;6.772;2022-12-05T18:32:17;34.92;;;17.45;;
5774;SDS011;2913;51.120;6.772;2022-12-05T18:34:43;27.83;;;16.35;;
5774;SDS011;2913;51.120;6.772;2022-12-05T18:37:11;28.33;;;16.10;;
5774;SDS011;2913;51.120;6.772;2022-12-05T18:39:46;27.58;;;14.93;;
5774;SDS011;2913;51.120;6.772;2022-12-05T18:42:14;30.63;;;15.20;;
5774;SDS011;2913;51.120;6.772;2022-12-05T18:44:42;24.27;;;14.20;;
5774;SDS011;2913;51.120;6.772;2022-12-05T18:47:08;29.67;;;15.10;;
5774;SDS011;2913;51.120;6.772;2022-12-05T18:49:33;26.55;;;14.68;;
5774;SDS011;2913;51.120;6.772;2022-12-05T18:52:01;32.20;;;15.95;;
5774;SDS011;2913;51.120;6.772;2022-12-05T18:54:27;26.15;;;14.55;;
5774;SDS011;2913;51.120;6.772;2022-12-05T18:56:52;25.52;;;13.93;;
5774;SDS011;2913;51.120;6.772;2022-12-05T18:59:19;26.60;;;14.95;;
5774;SDS011;2913;51.120;6.772;2022-12-05T19:01:48;27.65;;;15.75;;
5774;SDS011;2913;51.120;6.772;2022-12-05T19:04:17;28.05;;;14.15;;